Time;durP1;ratioP1;P1;durP2;ratioP2;P2;SDS_P1;SDS_P2;PMS_P1;PMS_P2;Temp;Humidity;BMP_temperature;BMP_pressure;BME280_temperature;BME280_humidity;BME280_pressure;Samples;Min_cycle;Max_cycle;Signal;HPM_P1;HPM_P2
2024/04/01 00:01:28;;;;;;;23.02;11.55;;;11.10;99.90;;;;;;4866131;29;20223;-89
2024/04/01 00:03:56;;;;;;;17.17;11.32;;;11.00;99.90;;;;;;4882547;29;20571;-89
2024/04/01 00:06:27;;;;;;;20.00;11.13;;;11.00;99.90;;;;;;4865997;29;20216;-89
2024/04/01 00:08:53;;;;;;;24.42;12.65;;;11.00;99.90;;;;;;4882772;29;20633;-89
2024/04/01 00:11:18;;;;;;;25.67;12.50;;;11.00;99.90;;;;;;4866000;29;20192;-89
2024/04/01 00:13:44;;;;;;;18.55;12.20;;;11.00;99.90;;;;;;4865964;29;20184;-89
2024/04/01 00:16:24;;;;;;;21.30;12.10;;;10.90;99.90;;;;;;4865915;29;20212;-90
2024/04/01 00:18:50;;;;;;;18.25;10.93;;;10.90;99.90;;;;;;4865781;29;20615;-90
2024/04/01 00:21:16;;;;;;;19.23;10.70;;;10.90;99.90;;;;;;4865959;29;20195;-89
2024/04/01 00:23:43;;;;;;;21.60;11.52;;;10.80;99.90;;;;;;4866469;29;20188;-90
2024/04/01 00:26:18;;;;;;;21.17;12.25;;;10.80;99.90;;;;;;4865608;29;20186;-89
2024/04/01 00:28:44;;;;;;;26.35;13.20;;;10.80;99.90;;;;;;4865677;29;20199;-89
2024/04/01 00:31:09;;;;;;;21.40;13.63;;;10.80;99.90;;;;;;4865606;29;20214;-90
2024/04/01 00:33:35;;;;;;;22.27;12.15;;;10.80;99.90;;;;;;4865582;29;20639;-89
2024/04/01 00:36:00;;;;;;;18.35;12.55;;;10.70;99.90;;;;;;4882376;29;20215;-90
2024/04/01 00:38:26;;;;;;;21.27;12.30;;;10.70;99.90;;;;;;4865539;29;20624;-90
2024/04/01 00:40:52;;;;;;;19.38;12.18;;;10.70;99.90;;;;;;4865780;29;20535;-89
2024/04/01 00:43:18;;;;;;;19.70;11.85;;;10.70;99.90;;;;;;4864920;29;20287;-90
2024/04/01 00:45:46;;;;;;;18.55;11.50;;;10.60;99.90;;;;;;4864880;29;20219;-89
2024/04/01 00:48:13;;;;;;;20.17;12.13;;;10.60;99.90;;;;;;4864557;29;20203;-91
2024/04/01 00:50:42;;;;;;;18.17;11.23;;;10.70;99.90;;;;;;4864706;29;20243;-89
2024/04/01 00:53:10;;;;;;;17.67;11.48;;;10.70;99.90;;;;;;4864813;29;20215;-89
2024/04/01 00:55:42;;;;;;;16.77;11.48;;;10.60;99.90;;;;;;4864419;29;20302;-89
2024/04/01 00:58:11;;;;;;;16.70;11.77;;;10.60;99.90;;;;;;4864454;29;20192;-90
2024/04/01 01:00:37;;;;;;;23.33;12.05;;;10.60;99.90;;;;;;4864559;29;20183;-89
2024/04/01 01:03:03;;;;;;;19.40;12.63;;;10.60;99.90;;;;;;4864417;29;20231;-89
2024/04/01 01:05:30;;;;;;;20.25;12.18;;;10.60;99.90;;;;;;4864307;29;20212;-89
2024/04/01 01:07:58;;;;;;;20.77;11.15;;;10.60;99.90;;;;;;4864735;29;20184;-90
2024/04/01 01:10:24;;;;;;;22.95;12.75;;;10.50;99.90;;;;;;4864781;29;20184;-89
2024/04/01 01:12:50;;;;;;;21.48;12.65;;;10.50;99.90;;;;;;4881157;29;20180;-89
2024/04/01 01:15:16;;;;;;;20.20;13.10;;;10.50;99.90;;;;;;4864386;29;20220;-89
2024/04/01 01:17:45;;;;;;;19.33;13.10;;;10.50;99.90;;;;;;4864214;29;20366;-88
2024/04/01 01:20:12;;;;;;;22.63;12.40;;;10.50;99.90;;;;;;4864517;29;20196;-90
2024/04/01 01:22:42;;;;;;;23.08;13.38;;;10.50;99.90;;;;;;4864207;29;20195;-90
2024/04/01 01:25:08;;;;;;;26.27;13.57;;;10.50;99.90;;;;;;4864336;29;20192;-90
2024/04/01 01:27:52;;;;;;;21.90;12.60;;;10.40;99.90;;;;;;4864240;29;20209;-90
2024/04/01 01:30:18;;;;;;;23.55;13.95;;;10.40;99.90;;;;;;4864268;29;20259;-89
2024/04/01 01:32:47;;;;;;;24.15;14.10;;;10.40;99.90;;;;;;4864201;29;20623;-89
2024/04/01 01:35:21;;;;;;;22.88;14.85;;;10.40;99.90;;;;;;4863899;29;20196;-90
2024/04/01 01:37:49;;;;;;;23.42;14.80;;;10.40;99.90;;;;;;4863884;29;20225;-89
2024/04/01 01:40:15;;;;;;;24.10;15.88;;;10.40;99.90;;;;;;4864255;29;20230;-89
2024/04/01 01:42:41;;;;;;;27.02;16.05;;;10.40;99.90;;;;;;4823068;29;1237050;-89
2024/04/01 01:45:08;;;;;;;29.27;15.25;;;10.40;99.90;;;;;;4868707;29;20624;-89
2024/04/01 01:47:38;;;;;;;21.27;14.18;;;10.40;99.90;;;;;;4868688;29;20222;-89
2024/04/01 01:50:06;;;;;;;24.52;13.98;;;10.40;99.90;;;;;;4868475;29;20297;-88
2024/04/01 01:52:33;;;;;;;25.00;15.20;;;10.30;99.90;;;;;;4868622;29;20180;-88
2024/04/01 01:54:59;;;;;;;27.38;14.23;;;10.30;99.90;;;;;;4884720;29;20240;-88
2024/04/01 01:57:27;;;;;;;25.63;14.70;;;10.30;99.90;;;;;;4884365;29;20184;-88
2024/04/01 01:59:52;;;;;;;21.98;13.65;;;10.20;99.90;;;;;;4868536;29;20259;-88
2024/04/01 02:02:18;;;;;;;23.38;13.80;;;10.20;99.90;;;;;;4868192;29;20236;-88
2024/04/01 02:04:44;;;;;;;21.23;13.07;;;10.20;99.90;;;;;;4868267;29;20695;-89
2024/04/01 02:07:27;;;;;;;24.35;14.23;;;10.20;99.90;;;;;;4868164;29;20184;-89
2024/04/01 02:09:53;;;;;;;23.63;13.20;;;10.20;99.90;;;;;;4868226;29;20180;-88
2024/04/01 02:12:18;;;;;;;22.20;14.07;;;10.20;99.90;;;;;;4868098;29;20184;-88
2024/04/01 02:14:46;;;;;;;23.55;13.10;;;10.20;99.90;;;;;;4868195;29;20188;-88
2024/04/01 02:17:18;;;;;;;24.48;14.63;;;10.10;99.90;;;;;;4867922;29;20222;-88
2024/04/01 02:19:45;;;;;;;25.27;14.70;;;10.10;99.90;;;;;;4867880;29;20679;-88
2024/04/01 02:22:14;;;;;;;25.45;15.23;;;10.20;99.90;;;;;;4867952;29;20192;-88
2024/04/01 02:27:16;;;;;;;29.10;16.55;;;10.20;99.90;;;;;;5180522;23;20285;-88
2024/04/01 02:29:42;;;;;;;30.15;15.77;;;10.20;99.90;;;;;;4831099;29;20189;-89
2024/04/01 02:32:07;;;;;;;25.85;14.93;;;10.10;99.90;;;;;;4830464;29;20189;-88
2024/04/01 02:34:33;;;;;;;26.17;14.48;;;10.10;99.90;;;;;;4847245;29;20178;-89
2024/04/01 02:37:01;;;;;;;26.33;14.40;;;10.10;99.90;;;;;;4830758;29;20277;-89
2024/04/01 02:39:27;;;;;;;24.77;15.18;;;10.10;99.90;;;;;;4846206;29;20181;-89
2024/04/01 02:41:53;;;;;;;29.10;15.35;;;10.10;99.90;;;;;;4830512;29;20189;-89
2024/04/01 02:44:18;;;;;;;26.30;13.70;;;10.10;99.90;;;;;;4830609;29;20189;-89
2024/04/01 02:46:45;;;;;;;24.70;14.68;;;10.10;99.90;;;;;;4839421;29;20188;-89
2024/04/01 02:49:12;;;;;;;26.55;15.48;;;10.00;99.90;;;;;;4849024;29;20248;-88
2024/04/01 02:51:39;;;;;;;22.67;14.35;;;10.00;99.90;;;;;;4849063;29;20216;-88
2024/04/01 02:54:05;;;;;;;22.00;14.00;;;10.00;99.90;;;;;;4848846;29;20188;-89
2024/04/01 02:56:31;;;;;;;26.00;15.13;;;10.00;99.90;;;;;;4848744;29;20216;-88
2024/04/01 02:59:10;;;;;;;25.30;14.73;;;10.00;99.90;;;;;;4849014;29;20267;-88
2024/04/01 03:01:41;;;;;;;27.80;14.57;;;10.00;99.90;;;;;;4865362;29;20169;-88
2024/04/01 03:04:07;;;;;;;25.63;14.85;;;10.00;99.90;;;;;;4847050;29;20192;-89
2024/04/01 03:06:33;;;;;;;22.33;14.77;;;9.90;99.90;;;;;;4846880;29;20181;-88
2024/04/01 03:08:59;;;;;;;23.42;14.35;;;9.90;99.90;;;;;;4830696;29;20276;-89
2024/04/01 03:11:25;;;;;;;27.48;14.13;;;9.90;99.90;;;;;;4846737;29;20177;-89
2024/04/01 03:13:51;;;;;;;21.20;14.07;;;9.80;99.90;;;;;;4846705;29;20181;-89
2024/04/01 03:16:19;;;;;;;26.58;15.45;;;9.80;99.90;;;;;;4845059;29;20292;-88
2024/04/01 03:18:49;;;;;;;26.75;14.93;;;9.80;99.90;;;;;;4830272;29;20531;-88
2024/04/01 03:21:15;;;;;;;24.55;13.93;;;9.80;99.90;;;;;;4830341;29;20216;-88
2024/04/01 03:23:41;;;;;;;25.63;13.85;;;9.80;99.90;;;;;;4830165;29;20185;-88
2024/04/01 03:26:07;;;;;;;19.60;13.90;;;9.80;99.90;;;;;;4829831;29;20294;-89
2024/04/01 03:28:35;;;;;;;21.90;13.82;;;9.80;99.90;;;;;;4830213;29;20181;-89
2024/04/01 03:31:07;;;;;;;21.08;14.55;;;9.70;99.90;;;;;;4829923;29;20185;-88
2024/04/01 03:33:34;;;;;;;22.75;14.27;;;9.70;99.90;;;;;;4830046;29;20234;-86
2024/04/01 03:35:59;;;;;;;22.05;14.65;;;9.60;99.90;;;;;;4829790;29;20615;-88
2024/04/01 03:38:27;;;;;;;29.67;16.02;;;9.60;99.90;;;;;;4829895;29;20245;-88
2024/04/01 03:40:53;;;;;;;23.65;14.85;;;9.60;99.90;;;;;;4846298;29;20177;-88
2024/04/01 03:43:22;;;;;;;23.00;15.55;;;9.60;99.90;;;;;;4829718;29;20185;-88
2024/04/01 03:46:01;;;;;;;24.55;15.75;;;9.60;99.90;;;;;;4829862;29;20192;-88
2024/04/01 03:48:29;;;;;;;26.38;16.35;;;9.50;99.90;;;;;;4829527;29;20188;-88
2024/04/01 03:50:55;;;;;;;28.05;15.95;;;9.50;99.90;;;;;;4828834;29;20189;-88
2024/04/01 03:53:20;;;;;;;25.08;15.50;;;9.50;99.90;;;;;;4845883;29;20177;-88
2024/04/01 03:55:46;;;;;;;24.98;16.05;;;9.60;99.90;;;;;;4829482;29;20208;-88
2024/04/01 03:58:14;;;;;;;29.52;16.38;;;9.50;99.90;;;;;;4845818;29;20264;-88
2024/04/01 04:00:39;;;;;;;34.33;16.63;;;9.50;99.90;;;;;;4845805;29;20168;-89
2024/04/01 04:03:07;;;;;;;31.00;17.70;;;9.50;99.90;;;;;;4855275;29;20192;-88
2024/04/01 04:05:33;;;;;;;31.85;15.82;;;9.50;99.90;;;;;;4863571;29;20201;-89
2024/04/01 04:08:04;;;;;;;28.88;18.00;;;9.50;99.90;;;;;;4847678;29;20181;-89
2024/04/01 04:10:31;;;;;;;29.30;16.60;;;9.50;99.90;;;;;;4847657;29;20189;-88
2024/04/01 04:12:56;;;;;;;23.35;16.40;;;9.50;99.90;;;;;;4847693;29;20184;-89
2024/04/01 04:15:22;;;;;;;26.52;16.52;;;9.50;99.90;;;;;;4847230;29;20356;-89
2024/04/01 04:17:50;;;;;;;25.85;16.27;;;9.50;99.90;;;;;;4847318;29;20270;-89
2024/04/01 04:20:16;;;;;;;24.73;16.10;;;9.50;99.90;;;;;;4847474;29;20180;-89
2024/04/01 04:22:44;;;;;;;24.52;15.45;;;9.50;99.90;;;;;;4847358;29;20275;-89
2024/04/01 04:25:11;;;;;;;24.85;16.58;;;9.60;99.90;;;;;;4847675;29;20264;-89
2024/04/01 04:27:36;;;;;;;23.58;16.20;;;9.60;99.90;;;;;;4844374;29;20248;-89
2024/04/01 04:30:13;;;;;;;29.15;16.30;;;9.60;99.90;;;;;;4844738;29;20185;-89
2024/04/01 04:32:43;;;;;;;23.92;15.55;;;9.70;99.90;;;;;;4838148;29;20212;-88
2024/04/01 04:35:09;;;;;;;24.35;15.75;;;9.70;99.90;;;;;;4823169;29;20197;-89
2024/04/01 04:37:36;;;;;;;23.92;15.52;;;9.70;99.90;;;;;;4824931;29;20637;-89
2024/04/01 04:40:14;;;;;;;25.13;14.50;;;9.70;99.90;;;;;;4828884;29;20622;-89
2024/04/01 04:42:40;;;;;;;20.48;13.55;;;9.70;99.90;;;;;;4828905;29;20180;-90
2024/04/01 04:45:06;;;;;;;24.92;15.55;;;9.60;99.90;;;;;;4828851;29;20234;-89
2024/04/01 04:47:32;;;;;;;24.55;15.35;;;9.50;99.90;;;;;;4828737;29;20189;-89
2024/04/01 04:50:00;;;;;;;25.40;15.30;;;9.40;99.90;;;;;;4828769;29;20189;-89
2024/04/01 04:52:26;;;;;;;22.42;15.00;;;9.50;99.90;;;;;;4828918;29;20178;-88
2024/04/01 04:54:52;;;;;;;24.33;16.58;;;9.50;99.90;;;;;;4828866;29;20252;-88
2024/04/01 04:57:17;;;;;;;23.83;15.35;;;9.50;99.90;;;;;;4828693;29;20217;-88
2024/04/01 04:59:44;;;;;;;34.22;19.55;;;9.60;99.90;;;;;;4828424;29;20670;-89
2024/04/01 05:02:10;;;;;;;40.55;20.80;;;9.60;99.90;;;;;;4831164;29;20205;-88
2024/04/01 05:04:35;;;;;;;32.70;20.83;;;9.50;99.90;;;;;;4846986;29;20185;-88
2024/04/01 05:07:02;;;;;;;48.28;23.70;;;9.50;99.90;;;;;;4846980;29;20185;-89
2024/04/01 05:09:37;;;;;;;41.53;23.50;;;9.40;99.90;;;;;;4846714;29;20188;-88
2024/04/01 05:12:03;;;;;;;32.05;19.27;;;9.40;99.90;;;;;;4846683;29;20180;-88
2024/04/01 05:14:29;;;;;;;29.05;17.17;;;9.30;99.90;;;;;;4846679;29;20180;-89
2024/04/01 05:16:55;;;;;;;31.85;18.80;;;9.40;99.90;;;;;;4846251;29;20255;-89
2024/04/01 05:19:21;;;;;;;29.23;17.75;;;9.40;99.90;;;;;;4846030;29;20219;-88
2024/04/01 05:21:47;;;;;;;35.83;21.20;;;9.50;99.90;;;;;;4846333;29;20654;-89
2024/04/01 05:24:14;;;;;;;38.15;21.20;;;9.50;99.90;;;;;;4846354;29;20256;-88
2024/04/01 05:26:40;;;;;;;43.08;22.17;;;9.50;99.90;;;;;;4846129;29;21068;-89
2024/04/01 05:29:08;;;;;;;37.63;21.98;;;9.50;99.90;;;;;;4863063;29;20180;-89
2024/04/01 05:31:34;;;;;;;37.22;21.63;;;9.50;99.90;;;;;;4846329;29;20608;-86
2024/04/01 05:34:01;;;;;;;32.67;20.45;;;9.50;99.90;;;;;;4830071;29;20221;-88
2024/04/01 05:36:28;;;;;;;30.45;19.10;;;9.50;99.90;;;;;;4828033;29;20213;-87
2024/04/01 05:38:55;;;;;;;29.00;18.33;;;9.60;99.90;;;;;;4828094;29;20220;-88
2024/04/01 05:41:21;;;;;;;27.83;18.30;;;9.60;99.90;;;;;;4828304;29;20185;-88
2024/04/01 05:43:47;;;;;;;27.40;18.55;;;9.60;99.90;;;;;;4828304;29;20216;-88
2024/04/01 05:46:13;;;;;;;32.85;19.00;;;9.60;99.90;;;;;;4828181;29;20192;-88
2024/04/01 05:49:01;;;;;;;34.70;19.63;;;9.60;99.90;;;;;;4828152;29;20533;-88
2024/04/01 05:51:27;;;;;;;29.52;18.15;;;9.60;99.90;;;;;;4828286;29;20185;-88
2024/04/01 05:53:52;;;;;;;36.22;19.80;;;9.60;99.90;;;;;;4828075;29;20621;-87
2024/04/01 05:56:18;;;;;;;33.55;19.42;;;9.70;99.90;;;;;;4827960;29;20209;-87
2024/04/01 05:58:45;;;;;;;38.70;18.10;;;9.70;99.90;;;;;;4828097;29;20185;-88
2024/04/01 06:01:11;;;;;;;35.95;18.90;;;9.70;99.90;;;;;;4827974;29;20265;-87
2024/04/01 06:03:36;;;;;;;30.67;19.35;;;9.70;99.90;;;;;;4827642;29;20231;-87
2024/04/01 06:06:02;;;;;;;31.25;18.63;;;9.70;99.90;;;;;;4827943;29;20192;-87
2024/04/01 06:08:28;;;;;;;32.60;19.92;;;9.70;99.90;;;;;;4827883;29;20189;-88
2024/04/01 06:10:59;;;;;;;34.03;19.98;;;9.70;99.90;;;;;;4828155;29;20181;-88
2024/04/01 06:13:25;;;;;;;38.65;20.58;;;9.70;99.90;;;;;;4828380;29;20617;-87
2024/04/01 06:15:56;;;;;;;33.22;20.25;;;9.70;99.90;;;;;;4827771;29;20216;-87
2024/04/01 06:18:23;;;;;;;29.77;19.52;;;9.70;99.90;;;;;;4842836;29;20181;-88
2024/04/01 06:20:49;;;;;;;29.85;19.95;;;9.70;99.90;;;;;;4843230;29;20189;-88
2024/04/01 06:23:15;;;;;;;34.15;19.67;;;9.80;99.90;;;;;;4844677;29;20178;-87
2024/04/01 06:25:42;;;;;;;38.85;21.40;;;9.90;99.90;;;;;;4827608;29;20569;-88
2024/04/01 06:28:08;;;;;;;40.72;22.20;;;9.90;99.90;;;;;;4828076;29;20328;-88
2024/04/01 06:30:38;;;;;;;38.30;21.35;;;9.90;99.90;;;;;;4831027;29;20272;-88
2024/04/01 06:33:04;;;;;;;36.38;22.27;;;9.80;99.90;;;;;;4830712;29;20201;-88
2024/04/01 06:35:29;;;;;;;37.78;21.58;;;9.80;99.90;;;;;;4830845;29;20308;-89
2024/04/01 06:37:55;;;;;;;37.92;22.35;;;9.90;99.90;;;;;;4830885;29;20199;-89
2024/04/01 06:40:22;;;;;;;36.00;21.40;;;9.90;99.90;;;;;;4830912;29;20205;-88
2024/04/01 06:42:48;;;;;;;33.35;20.75;;;9.90;99.90;;;;;;4830734;29;20177;-88
2024/04/01 06:45:13;;;;;;;36.78;21.40;;;9.90;99.90;;;;;;4830705;29;20527;-88
2024/04/01 06:47:39;;;;;;;38.70;21.63;;;9.90;99.90;;;;;;4830488;29;20217;-88
2024/04/01 06:50:15;;;;;;;33.80;21.27;;;9.90;99.90;;;;;;4830476;29;20192;-89
2024/04/01 06:52:41;;;;;;;33.50;21.27;;;9.90;99.90;;;;;;4830901;29;20189;-88
2024/04/01 06:55:06;;;;;;;34.10;20.83;;;9.90;99.90;;;;;;4830719;29;20632;-89
2024/04/01 06:57:32;;;;;;;36.10;21.88;;;9.90;99.90;;;;;;4830464;29;20280;-90
2024/04/01 07:00:08;;;;;;;30.35;21.17;;;9.90;99.90;;;;;;4830599;29;20177;-89
2024/04/01 07:02:43;;;;;;;34.75;21.95;;;9.90;99.90;;;;;;4830341;29;20196;-88
2024/04/01 07:05:09;;;;;;;37.13;21.10;;;9.90;99.90;;;;;;4845660;29;20184;-88
2024/04/01 07:07:35;;;;;;;29.38;20.85;;;9.90;99.90;;;;;;4830612;29;20196;-88
2024/04/01 07:10:03;;;;;;;40.22;22.13;;;10.00;99.90;;;;;;4829982;29;20185;-87
2024/04/01 07:12:29;;;;;;;30.98;20.20;;;9.90;99.90;;;;;;4821427;29;20235;-86
2024/04/01 07:14:55;;;;;;;42.97;23.60;;;10.00;99.90;;;;;;4805722;29;20605;-88
2024/04/01 07:17:21;;;;;;;48.88;23.13;;;10.00;99.90;;;;;;4814422;29;20218;-87
2024/04/01 07:19:47;;;;;;;40.60;23.10;;;10.10;99.90;;;;;;4818111;29;20190;-89
2024/04/01 07:22:13;;;;;;;37.55;22.45;;;10.00;99.90;;;;;;4808297;29;20190;-86
2024/04/01 07:24:39;;;;;;;35.42;22.67;;;10.00;99.90;;;;;;4803535;29;20289;-88
2024/04/01 07:27:05;;;;;;;30.35;22.67;;;10.10;99.90;;;;;;4819392;29;20245;-88
2024/04/01 07:29:30;;;;;;;36.83;22.75;;;10.00;99.90;;;;;;4818360;29;20186;-86
2024/04/01 07:31:56;;;;;;;41.60;24.40;;;10.00;99.90;;;;;;4808800;29;20234;-85
2024/04/01 07:34:22;;;;;;;41.05;22.50;;;10.10;99.90;;;;;;4833649;29;20238;-85
2024/04/01 07:36:47;;;;;;;36.30;23.02;;;10.10;99.90;;;;;;4809970;29;20242;-86
2024/04/01 07:39:13;;;;;;;38.67;23.73;;;10.10;99.90;;;;;;4827488;29;20222;-86
2024/04/01 07:41:40;;;;;;;36.08;22.65;;;10.00;99.90;;;;;;4819233;29;20198;-86
2024/04/01 07:44:06;;;;;;;43.35;25.13;;;10.00;99.90;;;;;;4808681;29;20178;-88
2024/04/01 07:46:33;;;;;;;47.05;25.42;;;10.10;99.90;;;;;;4820169;29;20525;-87
2024/04/01 07:48:58;;;;;;;42.40;24.55;;;10.10;99.90;;;;;;4810618;29;20178;-87
2024/04/01 07:51:25;;;;;;;39.00;23.42;;;10.10;99.90;;;;;;4807748;29;20206;-85
2024/04/01 07:53:51;;;;;;;43.40;25.38;;;10.10;99.90;;;;;;4825958;29;20265;-87
2024/04/01 07:56:16;;;;;;;47.20;25.50;;;10.20;99.90;;;;;;4810606;29;20304;-87
2024/04/01 07:58:42;;;;;;;42.35;24.92;;;10.10;99.90;;;;;;4816912;29;20214;-85
2024/04/01 08:01:09;;;;;;;46.00;26.33;;;10.10;99.90;;;;;;4810754;29;20182;-86
2024/04/01 08:03:35;;;;;;;40.10;25.20;;;10.20;99.90;;;;;;4810275;29;20216;-87
2024/04/01 08:06:01;;;;;;;49.10;29.05;;;10.20;99.90;;;;;;4810585;29;20277;-86
2024/04/01 08:08:27;;;;;;;59.30;33.15;;;10.20;99.90;;;;;;4809888;29;20339;-86
2024/04/01 08:10:54;;;;;;;62.85;32.25;;;10.20;99.90;;;;;;4802977;29;20585;-87
2024/04/01 08:13:20;;;;;;;105.55;51.50;;;10.20;99.90;;;;;;4810672;29;20201;-86
2024/04/01 08:15:46;;;;;;;45.30;25.08;;;10.30;99.90;;;;;;4817088;29;20210;-86
2024/04/01 08:18:11;;;;;;;37.65;25.05;;;10.30;99.90;;;;;;4811591;29;20190;-87
2024/04/01 08:20:37;;;;;;;40.30;24.38;;;10.30;99.90;;;;;;4810432;29;20194;-86
2024/04/01 08:23:03;;;;;;;40.53;24.08;;;10.30;99.90;;;;;;4810803;29;20194;-89
2024/04/01 08:25:29;;;;;;;42.63;25.35;;;10.30;99.90;;;;;;4818496;29;20191;-89
2024/04/01 08:27:57;;;;;;;38.25;25.10;;;10.30;99.90;;;;;;4806562;29;20234;-88
2024/04/01 08:30:22;;;;;;;39.47;24.85;;;10.30;99.90;;;;;;4817619;29;20224;-87
2024/04/01 08:32:48;;;;;;;43.10;25.70;;;10.30;99.90;;;;;;4811439;29;20649;-87
2024/04/01 08:35:15;;;;;;;45.00;25.50;;;10.30;99.90;;;;;;4817322;29;20190;-88
2024/04/01 08:37:40;;;;;;;47.92;27.98;;;10.30;99.90;;;;;;4808175;29;20208;-88
2024/04/01 08:40:07;;;;;;;46.63;29.52;;;10.40;99.90;;;;;;4806700;29;20269;-85
2024/04/01 08:42:36;;;;;;;43.97;27.50;;;10.40;99.90;;;;;;4818451;29;20566;-87
2024/04/01 08:45:04;;;;;;;54.97;31.40;;;10.50;99.90;;;;;;4808845;29;20273;-87
2024/04/01 08:47:35;;;;;;;79.50;42.58;;;10.60;99.90;;;;;;4813632;29;20186;-87
2024/04/01 08:50:08;;;;;;;94.97;44.67;;;10.50;99.90;;;;;;4808167;29;20723;-87
2024/04/01 08:52:43;;;;;;;62.25;35.35;;;10.60;99.90;;;;;;4809684;29;20284;-86
2024/04/01 08:55:09;;;;;;;48.88;27.50;;;10.70;99.90;;;;;;4818446;29;20181;-87
2024/04/01 08:57:36;;;;;;;37.95;24.50;;;10.70;99.90;;;;;;4809078;29;20700;-86
2024/04/01 09:00:02;;;;;;;42.90;25.08;;;10.60;99.90;;;;;;4838114;29;20217;-86
2024/04/01 09:02:30;;;;;;;36.53;24.88;;;10.70;99.90;;;;;;4829300;29;20197;-87
2024/04/01 09:04:56;;;;;;;42.90;26.00;;;10.70;99.90;;;;;;4811015;29;20186;-87
2024/04/01 09:07:22;;;;;;;39.17;26.48;;;10.70;99.90;;;;;;4815918;29;20204;-89
2024/04/01 09:09:48;;;;;;;44.33;26.75;;;10.70;99.90;;;;;;4809773;29;20186;-90
2024/04/01 09:12:14;;;;;;;38.72;24.92;;;10.80;99.90;;;;;;4809464;29;20633;-88
2024/04/01 09:14:39;;;;;;;41.70;25.50;;;10.80;99.90;;;;;;4809822;29;20641;-87
2024/04/01 09:17:05;;;;;;;32.47;23.23;;;10.80;99.90;;;;;;4809516;29;20320;-88
2024/04/01 09:19:31;;;;;;;39.75;25.15;;;10.80;99.90;;;;;;4809362;29;20186;-88
2024/04/01 09:22:03;;;;;;;40.25;24.40;;;10.80;99.90;;;;;;4810207;29;20186;-88
2024/04/01 09:24:32;;;;;;;48.03;28.25;;;10.80;99.90;;;;;;4809496;29;20182;-88
2024/04/01 09:26:58;;;;;;;38.53;25.30;;;10.80;99.90;;;;;;4835824;29;20229;-88
2024/04/01 09:29:24;;;;;;;37.83;23.75;;;10.90;99.90;;;;;;4844116;29;20184;-88
2024/04/01 09:31:49;;;;;;;36.67;24.90;;;10.90;99.90;;;;;;4823313;29;20197;-88
2024/04/01 09:34:16;;;;;;;45.63;24.42;;;10.90;99.90;;;;;;4842379;29;20200;-88
2024/04/01 09:36:42;;;;;;;38.50;24.13;;;10.90;99.90;;;;;;4826690;29;20270;-87
2024/04/01 09:39:08;;;;;;;39.75;25.02;;;10.90;99.90;;;;;;4831774;29;20577;-86
2024/04/01 09:41:37;;;;;;;40.10;24.95;;;10.90;99.90;;;;;;4825470;29;20686;-87
2024/04/01 09:44:03;;;;;;;39.22;26.70;;;10.80;99.90;;;;;;4827546;29;20190;-88
2024/04/01 09:46:31;;;;;;;43.40;27.17;;;10.80;99.90;;;;;;4835549;29;20188;-87
2024/04/01 09:48:57;;;;;;;49.28;27.42;;;10.90;99.90;;;;;;4842900;29;20185;-89
2024/04/01 09:51:27;;;;;;;50.30;25.95;;;10.90;99.90;;;;;;4829104;29;20196;-88
2024/04/01 09:53:53;;;;;;;38.33;24.40;;;10.90;99.90;;;;;;4835278;29;20181;-89
2024/04/01 09:56:37;;;;;;;41.28;24.95;;;10.90;99.90;;;;;;4844046;29;20281;-87
2024/04/01 09:59:37;;;;;;;44.03;25.15;;;10.90;99.90;;;;;;4851815;29;20521;-88
2024/04/01 10:02:06;;;;;;;36.25;25.88;;;11.00;99.90;;;;;;4843222;29;20181;-88
2024/04/01 10:04:52;;;;;;;45.35;25.25;;;11.00;99.90;;;;;;4823559;29;20182;-87
2024/04/01 10:07:36;;;;;;;39.97;24.77;;;11.00;99.90;;;;;;4836049;29;20197;-88
2024/04/01 10:10:17;;;;;;;41.38;24.38;;;11.10;99.90;;;;;;4845925;29;20216;-88
2024/04/01 10:13:16;;;;;;;45.75;26.50;;;11.20;99.90;;;;;;4846066;29;20272;-88
2024/04/01 10:16:03;;;;;;;52.88;34.25;;;11.20;99.90;;;;;;4838947;29;20367;-88
2024/04/01 10:18:56;;;;;;;45.55;28.83;;;11.20;99.90;;;;;;4847105;29;20196;-89
2024/04/01 10:21:36;;;;;;;47.42;25.80;;;11.20;99.90;;;;;;4846492;29;20189;-89
2024/04/01 10:24:14;;;;;;;42.65;25.88;;;11.20;99.90;;;;;;4831849;29;20219;-88
2024/04/01 10:27:08;;;;;;;42.90;25.63;;;11.30;99.90;;;;;;4847062;29;20224;-88
2024/04/01 10:29:54;;;;;;;43.20;26.77;;;11.30;99.90;;;;;;4841087;29;20193;-88
2024/04/01 10:32:59;;;;;;;46.78;26.67;;;11.20;99.90;;;;;;4845773;29;20181;-89
2024/04/01 10:36:08;;;;;;;43.75;28.90;;;11.30;99.90;;;;;;4828642;29;20193;-87
2024/04/01 10:39:01;;;;;;;40.95;27.40;;;11.30;99.90;;;;;;4787311;30;20672;-88
2024/04/01 10:41:39;;;;;;;51.20;29.30;;;11.30;99.90;;;;;;4775311;30;20639;-88
2024/04/01 10:44:16;;;;;;;44.17;26.95;;;11.40;99.90;;;;;;4833282;29;20225;-88
2024/04/01 10:47:27;;;;;;;42.05;27.42;;;11.40;99.90;;;;;;4845644;29;20189;-88
2024/04/01 10:50:14;;;;;;;48.75;26.35;;;11.40;99.90;;;;;;4832101;29;20197;-88
2024/04/01 10:53:00;;;;;;;43.58;27.00;;;11.40;99.90;;;;;;4842746;29;20208;-87
2024/04/01 10:55:43;;;;;;;45.65;27.30;;;11.40;99.90;;;;;;4830187;29;20216;-87
2024/04/01 10:58:21;;;;;;;38.92;25.33;;;11.40;99.90;;;;;;4829830;29;20200;-87
2024/04/01 11:01:08;;;;;;;44.10;25.55;;;11.40;99.90;;;;;;4844797;29;20658;-87
2024/04/01 11:03:55;;;;;;;46.22;27.52;;;11.40;99.90;;;;;;4856180;29;20192;-88
2024/04/01 11:06:40;;;;;;;47.67;28.83;;;11.40;99.90;;;;;;4864833;29;20175;-88
2024/04/01 11:09:42;;;;;;;51.83;30.17;;;11.40;99.90;;;;;;4855331;29;20208;-89
2024/04/01 11:12:32;;;;;;;42.00;27.95;;;11.40;99.90;;;;;;4835697;29;20213;-88
2024/04/01 11:15:03;;;;;;;45.58;26.77;;;11.40;99.90;;;;;;4851448;29;20185;-88
2024/04/01 11:17:30;;;;;;;47.70;27.73;;;11.40;99.90;;;;;;4844446;29;20269;-88
2024/04/01 11:19:55;;;;;;;45.78;25.98;;;11.30;99.90;;;;;;4827858;29;20296;-87
2024/04/01 11:22:43;;;;;;;45.50;25.60;;;11.30;99.90;;;;;;4844290;29;20328;-86
2024/04/01 11:25:35;;;;;;;43.17;25.67;;;11.30;99.90;;;;;;4834225;29;20185;-86
2024/04/01 11:28:52;;;;;;;42.13;26.50;;;11.20;99.90;;;;;;4844160;29;20736;-88
2024/04/01 11:31:26;;;;;;;40.80;26.13;;;11.20;99.90;;;;;;4822052;29;20208;-88
2024/04/01 11:33:56;;;;;;;44.00;25.58;;;11.20;99.90;;;;;;4824147;29;20185;-87
2024/04/01 11:36:40;;;;;;;40.10;26.70;;;11.30;99.90;;;;;;4835497;29;20308;-87
2024/04/01 11:39:14;;;;;;;43.30;26.85;;;11.30;99.90;;;;;;4848023;29;20189;-85
2024/04/01 11:41:46;;;;;;;47.10;28.25;;;11.20;99.90;;;;;;4834252;29;20181;-88
2024/04/01 11:44:18;;;;;;;49.30;27.88;;;11.30;99.90;;;;;;4844094;29;20205;-86
2024/04/01 11:46:47;;;;;;;42.72;26.30;;;11.30;99.90;;;;;;4828533;29;20200;-88
2024/04/01 11:49:23;;;;;;;40.67;26.20;;;11.30;99.90;;;;;;4828420;29;20173;-86
2024/04/01 11:51:54;;;;;;;41.92;27.20;;;11.30;99.90;;;;;;4828562;29;20245;-84
2024/04/01 11:54:32;;;;;;;38.38;26.55;;;11.30;99.90;;;;;;4827495;29;20273;-87
2024/04/01 11:56:57;;;;;;;36.67;25.98;;;11.30;99.90;;;;;;4833404;29;20224;-87
2024/04/01 11:59:31;;;;;;;47.63;27.35;;;11.30;99.90;;;;;;4826341;29;20178;-87
2024/04/01 12:01:57;;;;;;;44.60;27.55;;;11.20;99.90;;;;;;4825830;29;20282;-85
2024/04/01 12:04:25;;;;;;;48.90;28.95;;;11.20;99.90;;;;;;4861453;29;20237;-85
2024/04/01 12:06:51;;;;;;;40.88;28.95;;;11.20;99.90;;;;;;4843643;29;20185;-85
2024/04/01 12:09:19;;;;;;;41.45;29.52;;;11.10;99.90;;;;;;4827909;29;20248;-86
2024/04/01 12:11:46;;;;;;;39.50;28.10;;;11.10;99.90;;;;;;4833226;29;20196;-89
2024/04/01 12:14:14;;;;;;;43.00;28.55;;;11.00;99.90;;;;;;4829009;29;20324;-87
2024/04/01 12:16:45;;;;;;;44.88;28.60;;;11.00;99.90;;;;;;4828991;29;20248;-89
2024/04/01 12:19:12;;;;;;;45.42;28.65;;;11.00;99.90;;;;;;4828048;29;20185;-89
2024/04/01 12:21:48;;;;;;;43.72;28.67;;;11.00;99.90;;;;;;4842070;29;20198;-90
2024/04/01 12:24:19;;;;;;;45.78;28.50;;;11.00;99.90;;;;;;4829298;29;20621;-86
2024/04/01 12:26:51;;;;;;;44.67;29.13;;;11.00;99.90;;;;;;4827736;29;20574;-88
2024/04/01 12:29:18;;;;;;;50.58;31.15;;;11.00;99.90;;;;;;4826641;29;20209;-88
2024/04/01 12:31:53;;;;;;;45.03;29.88;;;11.00;99.90;;;;;;4830531;29;20194;-88
2024/04/01 12:34:19;;;;;;;49.33;31.25;;;11.00;99.90;;;;;;4844315;29;20189;-87
2024/04/01 12:36:47;;;;;;;42.40;30.65;;;11.00;99.90;;;;;;4849819;29;20751;-87
2024/04/01 12:39:14;;;;;;;54.80;31.70;;;11.00;99.90;;;;;;4830697;29;20189;-88
2024/04/01 12:41:41;;;;;;;47.72;29.88;;;11.00;99.90;;;;;;4844529;29;20199;-87
2024/04/01 12:44:11;;;;;;;47.30;29.80;;;11.00;99.90;;;;;;4828731;29;20743;-86
2024/04/01 12:46:44;;;;;;;43.75;29.20;;;11.00;99.90;;;;;;4828581;29;20177;-86